Terminal Aerodrome Forecast
Issued by NWS Chicago, IL

Home | Current Version | Previous Version | Graphics & Text | Print | Product List | Glossary On
Versions: 1 2 3 4 5 6 7 8 9 10 11 12 13 14 15 16 17 18 19 20 21 22 23 24 25 26 27 28 29
000
FTUS43 KLOT 231148
TAFRFD
TAF
KRFD 231148Z 2312/2412 VRB03KT P6SM SCT120 BKN250
      TEMPO 2312/2313 5SM BR
     FM231500 19007KT P6SM SCT040 BKN250
     FM240900 18006KT 5SM -SHRA VCTS BKN050CB=

USA.gov is the U.S. government's official web portal to all federal, state and local government web resources and services.